Time;durP1;ratioP1;P1;durP2;ratioP2;P2;SDS_P1;SDS_P2;PMS_P1;PMS_P2;Temp;Humidity;BMP_temperature;BMP_pressure;BME280_temperature;BME280_humidity;BME280_pressure;Samples;Min_cycle;Max_cycle;Signal;HPM_P1;HPM_P2
2021/04/16 00:00:59;;;;;;;5.75;4.55;;;9.60;40.80;;;;;;1496166;39;20027;-53
2021/04/16 00:02:19;;;;;;;5.28;4.45;;;9.60;40.90;;;;;;1496226;39;20035;-54
2021/04/16 00:03:40;;;;;;;4.97;4.55;;;9.60;40.90;;;;;;1496509;39;20086;-53
2021/04/16 00:05:03;;;;;;;8.07;4.90;;;9.60;40.80;;;;;;1493112;39;20113;-55
2021/04/16 00:06:24;;;;;;;5.07;4.55;;;9.60;40.90;;;;;;1493214;39;20073;-52
2021/04/16 00:07:44;;;;;;;7.45;5.05;;;9.60;40.80;;;;;;1496216;39;20063;-53
2021/04/16 00:09:06;;;;;;;5.07;4.60;;;9.50;40.80;;;;;;1494487;39;20019;-53
2021/04/16 00:10:37;;;;;;;5.32;4.72;;;9.50;40.90;;;;;;1496798;39;20031;-52
2021/04/16 00:11:58;;;;;;;4.97;4.43;;;9.50;41.10;;;;;;1494032;39;20057;-54
2021/04/16 00:13:20;;;;;;;5.82;4.70;;;9.50;40.80;;;;;;1499226;39;20023;-55
2021/04/16 00:14:41;;;;;;;4.88;4.38;;;9.50;40.90;;;;;;1497949;39;20031;-52
2021/04/16 00:16:03;;;;;;;4.75;4.35;;;9.50;40.90;;;;;;1496741;39;20051;-52
2021/04/16 00:17:24;;;;;;;7.00;4.57;;;9.50;41.00;;;;;;1498442;39;20524;-52
2021/04/16 00:18:45;;;;;;;6.32;4.43;;;9.50;41.10;;;;;;1497180;39;20086;-54
2021/04/16 00:20:09;;;;;;;5.30;4.18;;;9.50;41.20;;;;;;1493743;39;20035;-52
2021/04/16 00:21:30;;;;;;;5.40;3.88;;;9.50;41.20;;;;;;1494875;39;20019;-52
2021/04/16 00:22:51;;;;;;;6.15;4.68;;;9.40;41.10;;;;;;1493574;39;20024;-52
2021/04/16 00:24:13;;;;;;;4.72;4.22;;;9.40;41.40;;;;;;1497913;39;20027;-52
2021/04/16 00:25:34;;;;;;;5.00;4.43;;;9.40;41.60;;;;;;1495914;39;20023;-54
2021/04/16 00:26:55;;;;;;;4.72;3.92;;;9.40;41.40;;;;;;1496756;39;20025;-53
2021/04/16 00:28:17;;;;;;;4.95;4.45;;;9.40;41.40;;;;;;1500112;39;20326;-54
2021/04/16 00:29:38;;;;;;;5.30;4.20;;;9.40;41.40;;;;;;1492699;39;20702;-53
2021/04/16 00:31:05;;;;;;;5.13;4.63;;;9.30;41.40;;;;;;1496293;39;20075;-53
2021/04/16 00:32:26;;;;;;;4.15;3.83;;;9.30;41.50;;;;;;1498876;39;20049;-51
2021/04/16 00:33:48;;;;;;;6.50;4.60;;;9.40;41.60;;;;;;1498113;39;20027;-54
2021/04/16 00:35:10;;;;;;;7.40;4.75;;;9.30;41.50;;;;;;1496263;39;20059;-54
2021/04/16 00:36:31;;;;;;;7.60;4.78;;;9.30;41.50;;;;;;1495552;39;20088;-53
2021/04/16 00:37:52;;;;;;;4.60;4.20;;;9.30;41.50;;;;;;1493140;39;20116;-53
2021/04/16 00:39:16;;;;;;;4.32;3.92;;;9.30;41.50;;;;;;1494301;39;20046;-52
2021/04/16 00:40:46;;;;;;;5.95;4.03;;;9.30;41.60;;;;;;1494981;39;20027;-53
2021/04/16 00:42:08;;;;;;;4.43;4.00;;;9.30;41.70;;;;;;1495052;39;20027;-51
2021/04/16 00:43:32;;;;;;;4.47;4.07;;;9.20;41.50;;;;;;1496165;39;20042;-53
2021/04/16 00:44:53;;;;;;;4.70;4.20;;;9.20;41.60;;;;;;1496131;39;20427;-54
2021/04/16 00:46:17;;;;;;;4.78;4.03;;;9.20;41.50;;;;;;1497558;39;20043;-52
2021/04/16 00:47:38;;;;;;;4.38;3.83;;;9.20;41.50;;;;;;1498352;39;20051;-51
2021/04/16 00:49:04;;;;;;;5.68;4.32;;;9.20;41.50;;;;;;1496699;39;20245;-54
2021/04/16 00:50:33;;;;;;;4.13;3.72;;;9.20;41.60;;;;;;1496166;39;20045;-52
2021/04/16 00:51:58;;;;;;;4.97;4.05;;;9.20;41.70;;;;;;1492603;39;20065;-55
2021/04/16 00:53:20;;;;;;;5.32;4.20;;;9.20;41.60;;;;;;1494722;39;20039;-53
2021/04/16 00:54:42;;;;;;;5.22;4.15;;;9.10;41.60;;;;;;1492293;39;20039;-54
2021/04/16 00:56:04;;;;;;;4.88;3.95;;;9.10;41.70;;;;;;1496181;39;20057;-54
2021/04/16 00:57:24;;;;;;;4.53;4.10;;;9.10;41.70;;;;;;1495399;39;20550;-53
2021/04/16 00:58:45;;;;;;;4.68;4.28;;;9.10;41.70;;;;;;1495517;39;20031;-52
2021/04/16 01:00:08;;;;;;;5.72;4.03;;;9.10;41.70;;;;;;1498102;39;20027;-54
2021/04/16 01:01:29;;;;;;;4.28;3.85;;;9.10;41.80;;;;;;1497283;39;20058;-56
2021/04/16 01:02:50;;;;;;;4.57;4.15;;;9.10;41.90;;;;;;1497539;39;20034;-56
2021/04/16 01:04:12;;;;;;;4.50;4.10;;;9.10;41.90;;;;;;1498537;39;20344;-55
2021/04/16 01:05:33;;;;;;;5.28;4.13;;;9.10;41.80;;;;;;1494627;39;20038;-57
2021/04/16 01:06:56;;;;;;;4.18;3.78;;;9.10;41.80;;;;;;1496845;39;20348;-56
2021/04/16 01:08:17;;;;;;;4.28;3.97;;;9.10;41.90;;;;;;1494486;39;20371;-54
2021/04/16 01:09:38;;;;;;;4.28;3.92;;;9.10;42.10;;;;;;1496454;39;20043;-55
2021/04/16 01:10:59;;;;;;;4.35;3.95;;;9.00;41.90;;;;;;1490022;39;20043;-53
2021/04/16 01:12:20;;;;;;;4.75;4.35;;;9.00;42.00;;;;;;1496970;39;20039;-54
2021/04/16 01:13:43;;;;;;;5.03;4.10;;;9.00;42.00;;;;;;1497800;39;20034;-55
2021/04/16 01:15:16;;;;;;;4.53;4.10;;;9.00;42.10;;;;;;1498142;39;20042;-55
2021/04/16 01:16:37;;;;;;;5.30;4.05;;;9.00;42.30;;;;;;1495427;39;20057;-50
2021/04/16 01:18:05;;;;;;;6.07;4.25;;;9.00;42.30;;;;;;1499642;39;20087;-54
2021/04/16 01:19:34;;;;;;;4.07;3.78;;;9.00;42.30;;;;;;1492446;39;20035;-54
2021/04/16 01:20:58;;;;;;;4.30;3.90;;;9.00;42.30;;;;;;1495234;39;20035;-52
2021/04/16 01:22:35;;;;;;;4.63;4.18;;;9.00;42.20;;;;;;1494997;39;20558;-52
2021/04/16 01:24:20;;;;;;;5.60;4.00;;;8.90;42.30;;;;;;1495369;39;20118;-54
2021/04/16 01:25:42;;;;;;;4.60;4.00;;;8.90;42.30;;;;;;1492690;39;20035;-55
2021/04/16 01:27:11;;;;;;;4.32;3.70;;;9.00;42.10;;;;;;1494173;39;20921;-55
2021/04/16 01:28:32;;;;;;;5.00;3.78;;;8.90;42.20;;;;;;1494201;39;20038;-54
2021/04/16 01:29:53;;;;;;;4.32;3.78;;;8.90;42.10;;;;;;1497107;39;20043;-53
2021/04/16 01:31:20;;;;;;;4.75;4.25;;;8.90;42.20;;;;;;1497931;39;20092;-55
2021/04/16 01:32:41;;;;;;;6.05;4.10;;;8.90;42.30;;;;;;1496994;39;20051;-56
2021/04/16 01:34:02;;;;;;;8.38;4.22;;;8.90;42.30;;;;;;1497490;39;20495;-55
2021/04/16 01:35:34;;;;;;;4.82;4.20;;;8.80;42.40;;;;;;1498149;39;20045;-55
2021/04/16 01:36:57;;;;;;;3.90;3.55;;;8.80;42.60;;;;;;1496876;39;20139;-55
2021/04/16 01:38:18;;;;;;;3.97;3.50;;;8.80;42.60;;;;;;1496781;39;20059;-54
2021/04/16 01:39:39;;;;;;;4.05;3.65;;;8.80;42.60;;;;;;1496413;39;20045;-54
2021/04/16 01:41:00;;;;;;;4.97;4.32;;;8.80;42.60;;;;;;1492964;39;20055;-56
2021/04/16 01:42:22;;;;;;;4.35;3.72;;;8.80;42.70;;;;;;1497076;39;20038;-52
2021/04/16 01:43:45;;;;;;;5.00;3.78;;;8.80;42.70;;;;;;1494059;39;20396;-55
2021/04/16 01:45:23;;;;;;;3.83;3.53;;;8.80;42.80;;;;;;1496327;39;20378;-56
2021/04/16 01:46:57;;;;;;;4.95;3.92;;;8.80;43.00;;;;;;1497101;39;20073;-54
2021/04/16 01:48:18;;;;;;;4.75;3.85;;;8.80;43.00;;;;;;1498911;39;20022;-55
2021/04/16 01:49:51;;;;;;;4.30;3.70;;;8.80;42.80;;;;;;1496123;39;20091;-52
2021/04/16 01:51:19;;;;;;;4.95;3.25;;;8.80;42.80;;;;;;1496836;39;20019;-55
2021/04/16 01:52:40;;;;;;;5.45;3.40;;;8.80;42.80;;;;;;1495640;39;20076;-53
2021/04/16 01:54:12;;;;;;;5.00;3.90;;;8.80;42.70;;;;;;1498987;39;20022;-55
2021/04/16 01:55:33;;;;;;;4.50;3.50;;;8.80;42.80;;;;;;1493494;39;20028;-54
2021/04/16 01:57:07;;;;;;;5.63;3.80;;;8.80;42.70;;;;;;1493874;39;20063;-54
2021/04/16 01:58:27;;;;;;;4.60;4.03;;;8.80;42.90;;;;;;1498072;39;20038;-53
2021/04/16 01:59:50;;;;;;;4.03;3.40;;;8.80;42.70;;;;;;1496079;39;20084;-56
2021/04/16 02:01:11;;;;;;;4.13;3.83;;;8.80;42.80;;;;;;1493983;39;20089;-53
2021/04/16 02:02:34;;;;;;;4.10;3.70;;;8.80;42.80;;;;;;1497872;39;20046;-53
2021/04/16 02:03:55;;;;;;;4.10;3.70;;;8.80;42.80;;;;;;1496381;39;20037;-54
2021/04/16 02:05:16;;;;;;;6.20;3.80;;;8.80;42.80;;;;;;1497254;39;20027;-54
2021/04/16 02:06:37;;;;;;;4.13;3.67;;;8.70;42.90;;;;;;1488145;39;20039;-54
2021/04/16 02:07:58;;;;;;;5.07;4.35;;;8.70;42.90;;;;;;1494578;39;20026;-55
2021/04/16 02:09:22;;;;;;;6.45;3.33;;;8.80;43.00;;;;;;1494895;39;20375;-56
2021/04/16 02:10:44;;;;;;;4.32;3.92;;;8.70;43.00;;;;;;1496938;39;20051;-55
2021/04/16 02:12:08;;;;;;;5.32;3.92;;;8.70;42.90;;;;;;1495607;39;20055;-54
2021/04/16 02:13:29;;;;;;;4.20;3.67;;;8.70;43.00;;;;;;1497781;39;20046;-54
2021/04/16 02:14:52;;;;;;;5.97;3.92;;;8.70;42.90;;;;;;1490870;39;20272;-55
2021/04/16 02:16:12;;;;;;;7.65;3.92;;;8.70;43.50;;;;;;1493395;39;20047;-54
2021/04/16 02:17:34;;;;;;;4.03;3.72;;;8.70;43.00;;;;;;1496041;39;20078;-55
2021/04/16 02:18:55;;;;;;;4.88;3.80;;;8.70;43.10;;;;;;1496510;39;20023;-53
2021/04/16 02:20:21;;;;;;;4.55;3.90;;;8.70;43.10;;;;;;1496805;39;20034;-54
2021/04/16 02:21:42;;;;;;;3.92;3.60;;;8.70;43.30;;;;;;1495570;39;20039;-54
2021/04/16 02:23:03;;;;;;;3.75;3.40;;;8.70;43.30;;;;;;1495995;39;20019;-56
2021/04/16 02:24:24;;;;;;;5.10;3.78;;;8.70;43.30;;;;;;1495874;39;20031;-54
2021/04/16 02:25:45;;;;;;;4.65;3.92;;;8.70;43.30;;;;;;1493349;39;20050;-54
2021/04/16 02:27:07;;;;;;;4.18;3.60;;;8.70;43.20;;;;;;1495293;39;20120;-55
2021/04/16 02:28:28;;;;;;;5.53;3.67;;;8.70;43.40;;;;;;1494663;39;20034;-53
2021/04/16 02:29:49;;;;;;;4.07;3.67;;;8.60;43.40;;;;;;1495064;39;20072;-53
2021/04/16 02:31:10;;;;;;;3.83;3.50;;;8.60;43.40;;;;;;1493814;39;20035;-52
2021/04/16 02:32:31;;;;;;;4.03;3.63;;;8.60;43.40;;;;;;1496364;39;20062;-54
2021/04/16 02:33:52;;;;;;;6.50;3.67;;;8.60;43.40;;;;;;1498469;39;20039;-53
2021/04/16 02:35:14;;;;;;;4.38;3.58;;;8.60;43.40;;;;;;1496504;39;20416;-54
2021/04/16 02:36:34;;;;;;;4.05;3.65;;;8.60;43.50;;;;;;1497728;39;20410;-52
2021/04/16 02:37:56;;;;;;;5.32;4.10;;;8.60;43.50;;;;;;1492247;39;20482;-50
2021/04/16 02:39:17;;;;;;;4.72;3.63;;;8.60;43.50;;;;;;1496466;39;20466;-55
2021/04/16 02:40:38;;;;;;;4.00;3.50;;;8.60;43.50;;;;;;1493819;39;20019;-56
2021/04/16 02:41:59;;;;;;;3.88;3.38;;;8.60;43.50;;;;;;1494757;39;20116;-54
2021/04/16 02:43:20;;;;;;;4.18;3.60;;;8.60;43.50;;;;;;1495028;39;20051;-55
2021/04/16 02:44:42;;;;;;;3.83;3.53;;;8.50;43.60;;;;;;1493884;39;20047;-50
2021/04/16 02:46:03;;;;;;;4.35;3.95;;;8.50;43.70;;;;;;1496015;39;20022;-56
2021/04/16 02:47:24;;;;;;;3.85;3.55;;;8.60;43.90;;;;;;1495760;39;20092;-55
2021/04/16 02:48:45;;;;;;;4.03;3.72;;;8.60;43.90;;;;;;1497430;39;20047;-53
2021/04/16 02:50:10;;;;;;;3.90;3.50;;;8.50;43.90;;;;;;1496478;39;20276;-53
2021/04/16 02:51:32;;;;;;;5.28;3.45;;;8.50;44.00;;;;;;1493813;39;20038;-55
2021/04/16 02:52:53;;;;;;;4.30;3.67;;;8.50;43.90;;;;;;1496121;39;20066;-51
2021/04/16 02:54:14;;;;;;;4.63;3.95;;;8.50;44.00;;;;;;1498735;39;20268;-53
2021/04/16 02:55:35;;;;;;;4.55;3.85;;;8.50;44.00;;;;;;1494408;39;20376;-53
2021/04/16 02:56:56;;;;;;;4.25;3.85;;;8.50;44.10;;;;;;1494737;39;20042;-54
2021/04/16 02:58:17;;;;;;;3.92;3.53;;;8.50;44.20;;;;;;1496834;39;20057;-53
2021/04/16 02:59:38;;;;;;;5.30;3.80;;;8.50;44.20;;;;;;1495288;39;20035;-54
2021/04/16 03:00:59;;;;;;;4.20;3.80;;;8.50;44.80;;;;;;1495131;39;20035;-54
2021/04/16 03:02:20;;;;;;;5.05;3.70;;;8.50;44.40;;;;;;1498863;39;20038;-54
2021/04/16 03:03:41;;;;;;;4.03;3.65;;;8.50;44.60;;;;;;1497197;39;20034;-54
2021/04/16 03:05:02;;;;;;;4.15;3.72;;;8.50;44.70;;;;;;1492229;39;20028;-53
2021/04/16 03:06:23;;;;;;;4.28;3.85;;;8.50;44.80;;;;;;1498199;39;20031;-55
2021/04/16 03:07:44;;;;;;;4.40;3.33;;;8.50;44.70;;;;;;1496528;39;20132;-54
2021/04/16 03:09:06;;;;;;;3.88;3.60;;;8.50;44.60;;;;;;1495796;39;20115;-53
2021/04/16 03:10:31;;;;;;;4.20;3.80;;;8.50;44.60;;;;;;1495497;39;20029;-53
2021/04/16 03:11:52;;;;;;;4.53;3.90;;;8.50;44.70;;;;;;1492808;39;20019;-54
2021/04/16 03:13:13;;;;;;;5.88;3.53;;;8.50;44.60;;;;;;1491922;39;20031;-53
2021/04/16 03:14:34;;;;;;;3.85;3.53;;;8.50;44.50;;;;;;1493013;39;20316;-56
2021/04/16 03:15:55;;;;;;;3.80;3.35;;;8.50;44.50;;;;;;1496759;39;20041;-54
2021/04/16 03:17:16;;;;;;;4.10;3.58;;;8.50;44.60;;;;;;1496215;39;20111;-55
2021/04/16 03:18:37;;;;;;;6.22;3.95;;;8.50;44.60;;;;;;1497014;39;20047;-53
2021/04/16 03:19:57;;;;;;;4.53;4.00;;;8.50;44.70;;;;;;1494598;39;20365;-53
2021/04/16 03:21:20;;;;;;;4.18;3.70;;;8.50;44.60;;;;;;1496101;39;20032;-55
2021/04/16 03:22:40;;;;;;;4.85;3.85;;;8.50;44.80;;;;;;1494789;39;20479;-52
2021/04/16 03:24:02;;;;;;;4.82;3.58;;;8.50;44.80;;;;;;1499315;39;20446;-55
2021/04/16 03:25:22;;;;;;;5.20;3.75;;;8.50;44.70;;;;;;1494521;39;20078;-55
2021/04/16 03:26:43;;;;;;;4.85;3.90;;;8.50;44.70;;;;;;1496714;39;20035;-51
2021/04/16 03:28:05;;;;;;;5.38;3.70;;;8.50;44.80;;;;;;1498162;39;20048;-55
2021/04/16 03:29:26;;;;;;;4.20;3.58;;;8.50;44.90;;;;;;1494998;39;20038;-52
2021/04/16 03:30:50;;;;;;;4.32;3.67;;;8.50;44.80;;;;;;1490310;39;20417;-56
2021/04/16 03:32:11;;;;;;;3.70;3.40;;;8.50;44.90;;;;;;1493998;39;20370;-54
2021/04/16 03:33:32;;;;;;;4.05;3.67;;;8.50;44.80;;;;;;1496414;39;20031;-53
2021/04/16 03:34:52;;;;;;;6.15;3.60;;;8.50;44.90;;;;;;1494032;39;20030;-54
2021/04/16 03:36:14;;;;;;;3.92;3.60;;;8.50;45.00;;;;;;1494554;39;20050;-55
2021/04/16 03:37:34;;;;;;;3.70;3.40;;;8.50;44.90;;;;;;1494150;39;20039;-53
2021/04/16 03:38:56;;;;;;;4.45;4.05;;;8.50;45.00;;;;;;1496341;39;20023;-56
2021/04/16 03:40:21;;;;;;;3.70;3.35;;;8.50;45.00;;;;;;1496162;39;20028;-53
2021/04/16 03:41:42;;;;;;;4.10;3.60;;;8.50;45.10;;;;;;1497078;39;20035;-51
2021/04/16 03:43:03;;;;;;;4.32;3.88;;;8.50;45.10;;;;;;1497563;39;20111;-54
2021/04/16 03:44:24;;;;;;;4.18;3.78;;;8.50;45.20;;;;;;1498448;39;20303;-55
2021/04/16 03:45:45;;;;;;;5.70;4.10;;;8.50;45.30;;;;;;1494167;39;20027;-54
2021/04/16 03:47:06;;;;;;;5.13;3.67;;;8.50;45.40;;;;;;1495941;39;20043;-54
2021/04/16 03:48:27;;;;;;;4.22;3.65;;;8.50;45.40;;;;;;1496803;39;20067;-55
2021/04/16 03:49:48;;;;;;;4.22;3.83;;;8.50;45.40;;;;;;1493726;39;20072;-56
2021/04/16 03:51:10;;;;;;;5.72;3.53;;;8.60;45.40;;;;;;1496585;39;20448;-54
2021/04/16 03:52:31;;;;;;;4.88;3.78;;;8.60;45.40;;;;;;1494001;39;20054;-54
2021/04/16 03:53:52;;;;;;;3.88;3.47;;;8.60;45.40;;;;;;1497602;39;20266;-55
2021/04/16 03:55:14;;;;;;;3.40;3.10;;;8.60;45.40;;;;;;1497417;39;20038;-52
2021/04/16 03:56:35;;;;;;;4.28;3.85;;;8.60;45.30;;;;;;1495784;39;20054;-54
2021/04/16 03:57:57;;;;;;;3.72;3.42;;;8.60;45.30;;;;;;1496572;39;20038;-56
2021/04/16 03:59:20;;;;;;;3.90;3.50;;;8.60;45.30;;;;;;1495116;39;20024;-56
2021/04/16 04:00:41;;;;;;;4.53;3.78;;;8.60;45.40;;;;;;1496021;39;20040;-55
2021/04/16 04:02:02;;;;;;;4.35;3.55;;;8.60;45.50;;;;;;1498001;39;20023;-52
2021/04/16 04:03:23;;;;;;;3.35;3.10;;;8.60;45.60;;;;;;1498255;39;20039;-53
2021/04/16 04:04:43;;;;;;;3.83;3.47;;;8.60;45.50;;;;;;1492611;39;20035;-55
2021/04/16 04:06:05;;;;;;;3.70;3.28;;;8.60;45.50;;;;;;1495171;39;20046;-55
2021/04/16 04:07:26;;;;;;;4.90;3.55;;;8.60;45.50;;;;;;1496285;39;20080;-56
2021/04/16 04:08:47;;;;;;;4.78;3.85;;;8.60;45.50;;;;;;1493844;39;20395;-56
2021/04/16 04:10:09;;;;;;;4.70;3.88;;;8.60;45.60;;;;;;1492778;39;20035;-56
2021/04/16 04:11:31;;;;;;;4.35;3.85;;;8.60;45.50;;;;;;1494148;39;20042;-54
2021/04/16 04:12:52;;;;;;;4.60;3.97;;;8.60;45.50;;;;;;1497410;39;20108;-56
2021/04/16 04:14:12;;;;;;;4.68;4.00;;;8.60;45.60;;;;;;1497804;39;20030;-55
2021/04/16 04:15:34;;;;;;;4.32;3.90;;;8.60;45.60;;;;;;1495244;39;20039;-56
2021/04/16 04:16:57;;;;;;;4.32;3.63;;;8.60;45.60;;;;;;1497824;39;20077;-55
2021/04/16 04:18:18;;;;;;;8.55;3.42;;;8.70;45.70;;;;;;1495833;39;20119;-56
2021/04/16 04:19:39;;;;;;;4.78;3.90;;;8.70;45.70;;;;;;1492328;39;20046;-52
2021/04/16 04:21:01;;;;;;;5.57;4.38;;;8.70;45.80;;;;;;1497332;39;20325;-53
2021/04/16 04:22:23;;;;;;;4.05;3.47;;;8.70;45.80;;;;;;1494820;39;20042;-52
2021/04/16 04:23:44;;;;;;;4.50;3.63;;;8.70;45.90;;;;;;1489596;39;20106;-53
2021/04/16 04:25:05;;;;;;;7.05;3.63;;;8.60;45.70;;;;;;1492300;39;20023;-55
2021/04/16 04:26:26;;;;;;;4.28;3.45;;;8.70;45.90;;;;;;1493237;39;20019;-51
2021/04/16 04:27:48;;;;;;;4.97;4.25;;;8.60;45.80;;;;;;1497162;39;20034;-55
2021/04/16 04:29:10;;;;;;;5.53;4.07;;;8.70;46.00;;;;;;1496349;39;20050;-55
2021/04/16 04:30:35;;;;;;;3.80;3.50;;;8.70;46.00;;;;;;1495513;39;20108;-54
2021/04/16 04:31:56;;;;;;;4.82;4.03;;;8.70;45.90;;;;;;1495043;39;20059;-55
2021/04/16 04:33:17;;;;;;;5.38;4.00;;;8.70;45.70;;;;;;1497912;39;20027;-53
2021/04/16 04:34:39;;;;;;;6.05;3.67;;;8.70;45.70;;;;;;1497977;39;20291;-55
2021/04/16 04:36:00;;;;;;;4.50;3.45;;;8.70;45.70;;;;;;1494659;39;20035;-56
2021/04/16 04:37:22;;;;;;;4.85;3.92;;;8.70;45.70;;;;;;1495304;39;20031;-55
2021/04/16 04:38:43;;;;;;;4.65;3.78;;;8.70;45.70;;;;;;1498854;39;20352;-55
2021/04/16 04:40:06;;;;;;;4.50;3.97;;;8.70;45.80;;;;;;1495119;39;20043;-53
2021/04/16 04:41:27;;;;;;;4.70;4.13;;;8.70;45.80;;;;;;1496838;39;20034;-53
2021/04/16 04:42:48;;;;;;;4.78;3.83;;;8.70;45.70;;;;;;1494885;39;20031;-55
2021/04/16 04:44:09;;;;;;;5.38;3.85;;;8.70;45.80;;;;;;1494484;39;20389;-56
2021/04/16 04:45:31;;;;;;;4.35;3.40;;;8.70;45.90;;;;;;1498422;39;20071;-56
2021/04/16 04:46:52;;;;;;;4.55;3.90;;;8.70;46.00;;;;;;1494127;39;20030;-52
2021/04/16 04:48:13;;;;;;;3.97;3.50;;;8.70;46.00;;;;;;1493309;39;20031;-52
2021/04/16 04:49:35;;;;;;;4.40;3.90;;;8.70;46.00;;;;;;1495716;39;20034;-54
2021/04/16 04:50:56;;;;;;;4.35;3.70;;;8.70;46.00;;;;;;1497592;39;20030;-51
2021/04/16 04:52:37;;;;;;;4.85;4.35;;;8.70;46.10;;;;;;1493989;39;20557;-54
2021/04/16 04:53:58;;;;;;;4.53;3.83;;;8.60;46.40;;;;;;1488695;39;20051;-51
2021/04/16 04:55:30;;;;;;;3.90;3.53;;;8.70;46.00;;;;;;1496159;39;20030;-56
2021/04/16 04:56:51;;;;;;;4.40;4.00;;;8.70;46.40;;;;;;1495588;39;20067;-54
2021/04/16 04:58:12;;;;;;;7.35;4.00;;;8.70;46.20;;;;;;1499017;39;20035;-56
2021/04/16 04:59:33;;;;;;;4.97;3.95;;;8.70;46.20;;;;;;1494617;39;20039;-56
2021/04/16 05:00:54;;;;;;;4.32;3.55;;;8.70;46.20;;;;;;1495907;39;20027;-55
2021/04/16 05:02:17;;;;;;;4.40;3.22;;;8.70;46.10;;;;;;1498641;39;20030;-54
2021/04/16 05:03:38;;;;;;;4.70;3.60;;;8.70;46.30;;;;;;1496733;39;20035;-54
2021/04/16 05:04:59;;;;;;;4.70;3.75;;;8.70;46.30;;;;;;1496838;39;20130;-55
2021/04/16 05:06:20;;;;;;;4.70;4.18;;;8.70;46.30;;;;;;1492473;39;20208;-54
2021/04/16 05:07:41;;;;;;;6.97;3.83;;;8.70;46.30;;;;;;1494877;39;20051;-55
2021/04/16 05:09:02;;;;;;;3.80;3.40;;;8.70;46.30;;;;;;1492839;39;20016;-54
2021/04/16 05:10:23;;;;;;;4.13;3.45;;;8.70;46.40;;;;;;1495301;39;20081;-54
2021/04/16 05:11:44;;;;;;;5.15;3.63;;;8.70;46.40;;;;;;1494171;39;20536;-54
2021/04/16 05:13:04;;;;;;;6.47;4.25;;;8.70;46.50;;;;;;1497360;39;20388;-54
2021/04/16 05:14:26;;;;;;;4.00;3.60;;;8.70;46.60;;;;;;1499515;39;20034;-54
2021/04/16 05:15:47;;;;;;;4.70;4.22;;;8.70;46.60;;;;;;1497709;39;20559;-55
2021/04/16 05:17:08;;;;;;;4.88;3.67;;;8.70;46.50;;;;;;1495189;39;20041;-53
2021/04/16 05:18:29;;;;;;;4.93;4.22;;;8.70;46.50;;;;;;1497141;39;20708;-54
2021/04/16 05:19:50;;;;;;;6.72;4.55;;;8.80;46.50;;;;;;1496832;39;20087;-55
2021/04/16 05:21:11;;;;;;;5.72;4.60;;;8.70;46.50;;;;;;1495408;39;20106;-53
2021/04/16 05:22:32;;;;;;;7.75;4.35;;;8.70;46.50;;;;;;1495652;39;20038;-53
2021/04/16 05:23:52;;;;;;;4.50;3.92;;;8.70;46.60;;;;;;1494647;39;20023;-53
2021/04/16 05:25:14;;;;;;;7.80;4.50;;;8.80;46.60;;;;;;1495854;39;20027;-54
2021/04/16 05:26:36;;;;;;;4.75;4.32;;;8.70;46.60;;;;;;1497460;39;20043;-54
2021/04/16 05:27:57;;;;;;;6.30;4.50;;;8.80;46.70;;;;;;1499033;39;20027;-54
2021/04/16 05:29:18;;;;;;;6.10;4.65;;;8.80;46.70;;;;;;1494915;39;20067;-54
2021/04/16 05:30:39;;;;;;;6.68;4.63;;;8.80;46.70;;;;;;1497192;39;20050;-54
2021/04/16 05:32:01;;;;;;;6.05;4.70;;;8.80;46.70;;;;;;1495855;39;20042;-54
2021/04/16 05:33:22;;;;;;;4.25;3.50;;;8.80;46.70;;;;;;1494720;39;20046;-55
2021/04/16 05:34:45;;;;;;;4.93;4.25;;;8.80;46.80;;;;;;1494901;39;20031;-54
2021/04/16 05:36:06;;;;;;;5.43;4.18;;;8.70;46.80;;;;;;1497215;39;20039;-54
2021/04/16 05:37:27;;;;;;;4.85;4.45;;;8.80;46.90;;;;;;1498090;39;20111;-55
2021/04/16 05:38:48;;;;;;;5.32;4.40;;;8.80;46.90;;;;;;1493680;39;20335;-54
2021/04/16 05:40:09;;;;;;;4.80;4.30;;;8.70;47.00;;;;;;1494666;39;20039;-54
2021/04/16 05:41:30;;;;;;;5.15;4.65;;;8.80;47.10;;;;;;1493085;39;20037;-56
2021/04/16 05:42:51;;;;;;;6.40;4.72;;;8.80;47.00;;;;;;1498007;39;20023;-55
2021/04/16 05:44:12;;;;;;;6.88;4.88;;;8.80;47.10;;;;;;1498886;39;20035;-55
2021/04/16 05:45:33;;;;;;;4.30;3.90;;;8.80;47.00;;;;;;1490085;39;20129;-55
2021/04/16 05:46:54;;;;;;;8.90;5.32;;;8.80;47.00;;;;;;1488942;39;20067;-56
2021/04/16 05:48:15;;;;;;;6.03;4.40;;;8.80;47.10;;;;;;1490624;39;20023;-55
2021/04/16 05:49:36;;;;;;;4.82;4.32;;;8.80;47.10;;;;;;1491162;39;20063;-56
2021/04/16 05:50:57;;;;;;;5.05;4.53;;;8.90;47.10;;;;;;1490739;39;20116;-55
2021/04/16 05:52:18;;;;;;;6.57;4.47;;;8.80;47.10;;;;;;1490935;39;20032;-52
2021/04/16 05:53:39;;;;;;;6.10;4.80;;;8.80;47.10;;;;;;1489922;39;20078;-55
2021/04/16 05:55:00;;;;;;;7.15;4.95;;;8.80;47.10;;;;;;1492734;39;20039;-57
2021/04/16 05:56:21;;;;;;;5.10;4.50;;;8.80;47.10;;;;;;1491643;39;20048;-52
2021/04/16 05:57:42;;;;;;;12.30;5.22;;;8.90;47.20;;;;;;1493184;39;20028;-52
2021/04/16 05:59:03;;;;;;;7.47;4.82;;;8.90;47.40;;;;;;1493478;39;20454;-53
2021/04/16 06:00:27;;;;;;;5.95;5.13;;;8.90;47.30;;;;;;1495283;39;20051;-53
2021/04/16 06:01:48;;;;;;;5.20;4.63;;;8.90;47.40;;;;;;1493040;39;20504;-54
2021/04/16 06:03:10;;;;;;;6.03;4.57;;;8.90;47.30;;;;;;1493312;39;20023;-50
2021/04/16 06:04:31;;;;;;;5.97;5.00;;;9.00;47.50;;;;;;1492601;39;20035;-52
2021/04/16 06:05:51;;;;;;;6.93;4.70;;;8.90;47.50;;;;;;1495309;39;20027;-54
2021/04/16 06:07:12;;;;;;;6.53;5.03;;;8.90;47.40;;;;;;1495453;39;20260;-54
2021/04/16 06:08:33;;;;;;;5.57;4.70;;;9.00;47.50;;;;;;1493333;39;20047;-53
2021/04/16 06:09:56;;;;;;;5.78;5.22;;;9.00;47.60;;;;;;1492379;39;20035;-52
2021/04/16 06:11:17;;;;;;;8.32;5.35;;;9.00;47.50;;;;;;1494703;39;20104;-54
2021/04/16 06:12:38;;;;;;;8.20;4.82;;;9.00;47.60;;;;;;1494845;39;20039;-51
2021/04/16 06:13:59;;;;;;;8.23;5.13;;;9.10;47.70;;;;;;1493384;39;20031;-52
2021/04/16 06:15:23;;;;;;;7.53;5.22;;;9.10;47.60;;;;;;1496556;39;20053;-53
2021/04/16 06:16:44;;;;;;;8.65;5.25;;;9.10;47.70;;;;;;1494622;39;20120;-53
2021/04/16 06:18:05;;;;;;;7.60;4.88;;;9.10;47.60;;;;;;1493244;39;20040;-53
2021/04/16 06:19:26;;;;;;;6.22;5.03;;;9.10;47.70;;;;;;1494199;39;20031;-53
2021/04/16 06:20:47;;;;;;;7.43;5.15;;;9.10;47.80;;;;;;1491239;39;20039;-55
2021/04/16 06:22:09;;;;;;;8.95;5.32;;;9.10;47.70;;;;;;1492476;39;20054;-50
2021/04/16 06:23:30;;;;;;;9.95;5.22;;;9.20;47.80;;;;;;1491456;39;20047;-53
2021/04/16 06:24:51;;;;;;;6.57;4.82;;;9.20;47.80;;;;;;1488649;39;22017;-53
2021/04/16 06:26:12;;;;;;;7.75;5.05;;;9.20;47.80;;;;;;1489035;39;20040;-53
2021/04/16 06:27:33;;;;;;;7.35;5.38;;;9.20;47.80;;;;;;1493086;39;20050;-50
2021/04/16 06:28:54;;;;;;;7.57;5.28;;;9.30;47.80;;;;;;1495039;39;20034;-54
2021/04/16 06:30:18;;;;;;;6.50;4.85;;;9.30;47.80;;;;;;1493393;39;20106;-54
2021/04/16 06:31:39;;;;;;;8.68;5.30;;;9.30;47.90;;;;;;1494975;39;20093;-55
2021/04/16 06:33:06;;;;;;;8.55;5.30;;;9.30;47.90;;;;;;1493879;39;20038;-54
2021/04/16 06:34:27;;;;;;;6.13;5.43;;;9.40;48.10;;;;;;1493605;39;20300;-51
2021/04/16 06:35:54;;;;;;;9.57;5.50;;;9.40;48.00;;;;;;1489069;39;20052;-54
2021/04/16 06:37:15;;;;;;;7.95;5.05;;;9.40;48.00;;;;;;1494880;39;20023;-54
2021/04/16 06:38:39;;;;;;;6.80;5.32;;;9.40;47.90;;;;;;1494298;39;20043;-54
2021/04/16 06:39:59;;;;;;;7.18;5.15;;;9.50;47.90;;;;;;1492263;39;20358;-53
2021/04/16 06:41:23;;;;;;;6.68;5.10;;;9.50;47.80;;;;;;1492664;39;20089;-55
2021/04/16 06:42:46;;;;;;;7.88;5.60;;;9.50;47.80;;;;;;1493109;39;20050;-55
2021/04/16 06:44:14;;;;;;;5.97;5.38;;;9.50;47.80;;;;;;1493411;39;20068;-53
2021/04/16 06:45:35;;;;;;;7.70;5.95;;;9.50;47.80;;;;;;1495173;39;20047;-54
2021/04/16 06:47:02;;;;;;;6.90;5.65;;;9.60;47.80;;;;;;1492757;39;20032;-54
2021/04/16 06:48:23;;;;;;;7.55;5.47;;;9.60;47.90;;;;;;1494680;39;20046;-55
2021/04/16 06:49:44;;;;;;;7.93;5.25;;;9.60;47.80;;;;;;1489311;39;20272;-55
2021/04/16 06:51:06;;;;;;;6.75;5.50;;;9.60;47.90;;;;;;1489756;39;20047;-54
2021/04/16 06:53:10;;;;;;;6.85;5.68;;;9.70;47.90;;;;;;1492051;39;20039;-54
2021/04/16 06:54:59;;;;;;;7.57;5.90;;;9.70;48.10;;;;;;1475118;39;20440;-52
2021/04/16 06:56:37;;;;;;;9.45;5.18;;;9.70;48.00;;;;;;1491119;39;20494;-52
2021/04/16 06:58:20;;;;;;;8.15;5.57;;;9.70;47.90;;;;;;1493500;39;20062;-55
2021/04/16 06:59:44;;;;;;;8.38;5.30;;;9.80;48.10;;;;;;1493631;39;20035;-53
2021/04/16 07:01:08;;;;;;;8.18;5.40;;;9.80;47.80;;;;;;1491459;39;20032;-55
2021/04/16 07:02:38;;;;;;;9.85;5.95;;;9.80;47.90;;;;;;1492993;39;20038;-54
2021/04/16 07:04:20;;;;;;;7.18;5.80;;;9.80;48.00;;;;;;1493452;39;20026;-51
2021/04/16 07:06:14;;;;;;;6.50;5.38;;;9.90;47.90;;;;;;1493468;39;20035;-54
2021/04/16 07:07:45;;;;;;;6.65;5.25;;;9.90;47.90;;;;;;1495358;39;20307;-53
2021/04/16 07:09:10;;;;;;;7.93;5.43;;;10.00;47.70;;;;;;1491023;39;20237;-54
2021/04/16 07:10:37;;;;;;;7.20;4.88;;;10.00;47.60;;;;;;1493969;39;20033;-53
2021/04/16 07:12:10;;;;;;;7.47;5.65;;;10.00;47.50;;;;;;1491382;39;20155;-53
2021/04/16 07:13:36;;;;;;;6.68;5.22;;;10.00;47.50;;;;;;1493382;39;20043;-54
2021/04/16 07:15:01;;;;;;;7.57;5.32;;;10.00;47.70;;;;;;1493122;39;20028;-55
2021/04/16 07:16:23;;;;;;;8.52;5.82;;;10.10;47.70;;;;;;1494399;39;20038;-54
2021/04/16 07:17:46;;;;;;;8.65;5.50;;;10.10;47.60;;;;;;1492877;39;20059;-53